Silverdale, Kansas
Current Conditions -  °F | °C
As of 10:54 AM on Thursday 30 Oct 2014 (Local Time) from KWLD Reporting Station
Clear Clear  
Wind Chill: 64°   Ceiling: Unl
Heat Index: 64°   Visibility: 10mi
Dew Point: 40°   Wind: 16mph
Humidity: 41%   Direction: 360°N
Pressure: 30.13"   Gusts: NA
Location:  37.0955°N, 96.9739°W
Report Text: KWLD 301554Z AUTO 36014KT 10SM CLR 18/04 A3013 RMK AO2 SLP199 T01780044
Loading
Personal Weather Stations






























Interactive Weather Map
Tropical Storm Tracking
New forecast layout! Learn more

10-Day Weather Forecast

Advertisements
Track Severe Weather on mobile